Time;durP1;ratioP1;P1;durP2;ratioP2;P2;SDS_P1;SDS_P2;PMS_P1;PMS_P2;Temp;Humidity;BMP_temperature;BMP_pressure;BME280_temperature;BME280_humidity;BME280_pressure;Samples;Min_cycle;Max_cycle;Signal;HPM_P1;HPM_P2
2022/02/08 00:00:08;;;;;;;16.73;3.23;;;;;;;;;;5047911;28;20671;-68
2022/02/08 00:02:36;;;;;;;13.67;3.53;;;;;;;;;;5038751;28;20316;-68
2022/02/08 00:05:04;;;;;;;16.00;3.80;;;;;;;;;;5044902;28;20197;-67
2022/02/08 00:07:31;;;;;;;17.27;4.37;;;;;;;;;;5055540;28;20181;-67
2022/02/08 00:09:57;;;;;;;20.10;4.07;;;;;;;;;;5047746;28;20185;-67
2022/02/08 00:12:22;;;;;;;18.07;3.90;;;;;;;;;;5056345;28;20182;-67
2022/02/08 00:14:48;;;;;;;18.53;3.57;;;;;;;;;;5048871;28;20228;-67
2022/02/08 00:17:14;;;;;;;18.23;3.37;;;;;;;;;;5047893;28;20215;-67
2022/02/08 00:19:39;;;;;;;19.37;3.87;;;;;;;;;;5047879;28;20181;-67
2022/02/08 00:22:05;;;;;;;15.77;3.43;;;;;;;;;;5054145;28;20193;-66
2022/02/08 00:24:31;;;;;;;20.93;3.37;;;;;;;;;;5048459;28;20627;-67
2022/02/08 00:26:56;;;;;;;21.97;4.17;;;;;;;;;;5050937;28;20199;-68
2022/02/08 00:29:22;;;;;;;14.57;3.87;;;;;;;;;;5045320;28;20185;-68
2022/02/08 00:31:47;;;;;;;12.70;3.80;;;;;;;;;;5038400;28;20259;-68
2022/02/08 00:34:13;;;;;;;16.03;3.60;;;;;;;;;;5046093;28;20255;-67
2022/02/08 00:36:38;;;;;;;20.30;4.00;;;;;;;;;;5048887;28;20236;-68
2022/02/08 00:39:07;;;;;;;17.03;4.27;;;;;;;;;;5046908;28;20174;-67
2022/02/08 00:41:34;;;;;;;20.97;4.30;;;;;;;;;;5038506;28;20598;-67
2022/02/08 00:44:05;;;;;;;17.93;4.10;;;;;;;;;;5044752;28;20221;-67
2022/02/08 00:46:44;;;;;;;22.27;4.47;;;;;;;;;;5046988;28;20193;-68
2022/02/08 00:49:11;;;;;;;16.30;4.17;;;;;;;;;;5045041;28;20208;-67
2022/02/08 00:51:47;;;;;;;17.27;4.60;;;;;;;;;;5048922;28;20604;-68
2022/02/08 00:54:15;;;;;;;15.40;4.53;;;;;;;;;;5046242;28;20555;-67
2022/02/08 00:56:42;;;;;;;13.17;4.67;;;;;;;;;;5049522;28;20292;-67
2022/02/08 00:59:07;;;;;;;18.23;4.67;;;;;;;;;;5042738;28;20247;-67
2022/02/08 01:01:36;;;;;;;23.20;5.83;;;;;;;;;;5049852;28;20235;-67
2022/02/08 01:04:03;;;;;;;20.47;5.93;;;;;;;;;;5047347;28;20253;-67
2022/02/08 01:06:28;;;;;;;17.17;4.53;;;;;;;;;;5047255;28;20205;-67
2022/02/08 01:09:05;;;;;;;27.40;5.97;;;;;;;;;;5044956;28;20189;-67
2022/02/08 01:11:31;;;;;;;28.50;6.10;;;;;;;;;;5047922;28;20288;-66
2022/02/08 01:13:56;;;;;;;20.63;6.40;;;;;;;;;;5048557;28;20664;-66
2022/02/08 01:16:21;;;;;;;23.37;7.03;;;;;;;;;;5045714;28;20213;-66
2022/02/08 01:18:49;;;;;;;22.37;7.03;;;;;;;;;;5046350;28;20611;-68
2022/02/08 01:21:15;;;;;;;21.37;6.83;;;;;;;;;;5045641;28;20177;-68
2022/02/08 01:23:40;;;;;;;16.57;6.47;;;;;;;;;;5045281;28;20285;-66
2022/02/08 01:26:12;;;;;;;30.00;6.83;;;;;;;;;;5045971;28;20286;-67
2022/02/08 01:28:58;;;;;;;21.73;6.90;;;;;;;;;;5042788;28;20194;-67
2022/02/08 01:31:24;;;;;;;24.30;6.30;;;;;;;;;;5037161;28;20201;-68
2022/02/08 01:36:47;;;;;;;19.37;6.57;;;;;;;;;;5047336;28;20217;-68
2022/02/08 01:39:19;;;;;;;25.37;6.90;;;;;;;;;;5042315;28;20592;-68
2022/02/08 01:44:45;;;;;;;22.90;6.93;;;;;;;;;;5043863;28;20212;-67
2022/02/08 01:47:26;;;;;;;25.77;7.10;;;;;;;;;;5047802;28;20465;-67
2022/02/08 01:50:11;;;;;;;21.57;7.83;;;;;;;;;;5045607;28;20299;-67
2022/02/08 01:52:37;;;;;;;24.10;7.57;;;;;;;;;;5043996;28;20572;-67
2022/02/08 01:55:03;;;;;;;20.93;7.47;;;;;;;;;;5046469;28;20621;-68
2022/02/08 01:57:28;;;;;;;29.10;8.17;;;;;;;;;;5040797;28;20300;-68
2022/02/08 01:59:54;;;;;;;25.57;8.97;;;;;;;;;;5045099;28;20269;-68
2022/02/08 02:02:20;;;;;;;22.20;8.43;;;;;;;;;;5043733;28;20226;-68
2022/02/08 02:04:45;;;;;;;23.30;8.93;;;;;;;;;;5044471;28;20602;-68
2022/02/08 02:07:10;;;;;;;23.00;10.73;;;;;;;;;;5047835;28;20201;-67
2022/02/08 02:09:38;;;;;;;31.13;10.17;;;;;;;;;;5047473;28;20324;-67
2022/02/08 02:12:07;;;;;;;29.80;10.37;;;;;;;;;;5043283;28;20703;-67
2022/02/08 02:14:37;;;;;;;28.77;10.90;;;;;;;;;;5044150;28;20243;-68
2022/02/08 02:17:03;;;;;;;27.53;11.73;;;;;;;;;;5045776;28;20205;-68
2022/02/08 02:19:30;;;;;;;27.10;10.87;;;;;;;;;;5060191;28;20170;-68
2022/02/08 02:21:57;;;;;;;32.77;12.87;;;;;;;;;;5045205;28;20212;-68
2022/02/08 02:24:23;;;;;;;25.10;12.00;;;;;;;;;;5045972;28;20193;-68
2022/02/08 02:26:49;;;;;;;30.67;12.80;;;;;;;;;;5042856;28;20640;-67
2022/02/08 02:29:16;;;;;;;25.10;12.80;;;;;;;;;;5045322;28;20185;-68
2022/02/08 02:31:42;;;;;;;36.77;13.17;;;;;;;;;;5041568;28;20205;-69
2022/02/08 02:34:08;;;;;;;32.90;14.20;;;;;;;;;;5045102;28;20193;-68
2022/02/08 02:36:34;;;;;;;32.70;13.93;;;;;;;;;;5043415;28;20209;-68
2022/02/08 02:38:59;;;;;;;32.03;14.17;;;;;;;;;;5045425;28;20624;-69
2022/02/08 02:41:24;;;;;;;31.90;13.60;;;;;;;;;;5039122;28;20264;-69
2022/02/08 02:43:50;;;;;;;32.07;14.73;;;;;;;;;;5044083;28;20254;-69
2022/02/08 02:46:15;;;;;;;28.40;13.70;;;;;;;;;;5043883;28;20553;-69
2022/02/08 02:48:41;;;;;;;36.03;14.73;;;;;;;;;;5045771;28;20586;-69
2022/02/08 02:51:06;;;;;;;28.70;14.60;;;;;;;;;;5041130;28;20695;-70
2022/02/08 02:53:32;;;;;;;30.03;14.50;;;;;;;;;;5043621;28;20268;-69
2022/02/08 02:55:57;;;;;;;29.70;14.63;;;;;;;;;;5041571;28;20193;-70
2022/02/08 02:58:27;;;;;;;29.73;14.27;;;;;;;;;;5042621;28;20193;-69
2022/02/08 03:01:12;;;;;;;30.13;14.97;;;;;;;;;;5041902;28;20660;-68
2022/02/08 03:17:38;;;;;;;33.30;15.93;;;;;;;;;;5040997;28;20309;-69
2022/02/08 03:20:05;;;;;;;35.00;16.00;;;;;;;;;;5045817;28;20586;-68
2022/02/08 03:22:30;;;;;;;40.40;16.50;;;;;;;;;;5041946;28;20193;-68
2022/02/08 03:24:56;;;;;;;43.80;16.33;;;;;;;;;;5045282;28;20208;-69
2022/02/08 03:27:21;;;;;;;37.87;17.50;;;;;;;;;;5040377;28;20194;-68
2022/02/08 03:29:46;;;;;;;38.03;17.03;;;;;;;;;;5044455;28;20203;-69
2022/02/08 03:32:13;;;;;;;34.07;17.20;;;;;;;;;;5039065;28;20300;-67
2022/02/08 03:34:39;;;;;;;35.03;16.23;;;;;;;;;;5041928;28;20611;-69
2022/02/08 03:37:04;;;;;;;38.87;17.87;;;;;;;;;;5040829;28;20304;-67
2022/02/08 03:39:37;;;;;;;34.23;17.13;;;;;;;;;;5044357;28;20217;-68
2022/02/08 03:42:15;;;;;;;37.47;17.63;;;;;;;;;;5044717;28;20197;-68
2022/02/08 03:44:45;;;;;;;41.13;19.50;;;;;;;;;;5043926;28;20188;-67
2022/02/08 03:47:10;;;;;;;40.87;18.50;;;;;;;;;;5041528;28;20243;-68
2022/02/08 03:49:35;;;;;;;33.40;17.23;;;;;;;;;;5045889;28;20193;-68
2022/02/08 03:52:05;;;;;;;34.13;18.87;;;;;;;;;;5042954;28;20758;-69
2022/02/08 03:54:31;;;;;;;42.50;18.63;;;;;;;;;;5044715;28;20193;-69
2022/02/08 03:56:56;;;;;;;43.43;20.50;;;;;;;;;;5039859;28;20217;-68
2022/02/08 03:59:21;;;;;;;41.20;18.53;;;;;;;;;;5041675;28;20225;-68
2022/02/08 04:04:49;;;;;;;40.93;20.67;;;;;;;;;;5040271;28;20193;-68
2022/02/08 04:07:39;;;;;;;50.83;21.27;;;;;;;;;;5042459;28;20292;-68
2022/02/08 04:10:05;;;;;;;51.87;22.07;;;;;;;;;;5032659;28;20251;-68
2022/02/08 04:12:42;;;;;;;46.00;20.97;;;;;;;;;;5041147;28;20190;-67
2022/02/08 04:15:33;;;;;;;47.20;21.13;;;;;;;;;;5044890;28;20243;-69
2022/02/08 04:18:36;;;;;;;46.47;21.90;;;;;;;;;;5039715;28;20771;-69
2022/02/08 04:42:43;;;;;;;40.85;20.95;;;;;;;;;;5045999;28;20811;-68
2022/02/08 04:45:20;;;;;;;47.08;21.00;;;;;;;;;;5037734;28;20201;-67
2022/02/08 04:50:19;;;;;;;39.75;19.77;;;;;;;;;;5045535;28;20563;-68
2022/02/08 04:52:45;;;;;;;39.92;20.88;;;;;;;;;;5046706;28;20182;-68
2022/02/08 05:44:25;;;;;;;38.88;17.42;;;;;;;;;;5052496;28;20606;-68
2022/02/08 05:46:51;;;;;;;33.78;17.30;;;;;;;;;;5045890;28;20173;-69
2022/02/08 05:49:25;;;;;;;38.95;17.40;;;;;;;;;;5045314;28;20201;-68
2022/02/08 05:54:17;;;;;;;35.78;16.77;;;;;;;;;;5047167;28;20232;-68
2022/02/08 05:56:43;;;;;;;31.10;15.90;;;;;;;;;;5043714;28;20541;-67
2022/02/08 05:59:09;;;;;;;38.13;17.38;;;;;;;;;;5045104;28;20228;-68
2022/02/08 06:01:35;;;;;;;35.30;17.35;;;;;;;;;;5048891;28;20209;-68
2022/02/08 06:04:01;;;;;;;33.22;16.08;;;;;;;;;;5041528;28;20178;-68
2022/02/08 06:06:28;;;;;;;35.17;15.13;;;;;;;;;;5044522;28;20707;-68
2022/02/08 06:08:53;;;;;;;39.60;16.42;;;;;;;;;;5041469;28;20618;-68
2022/02/08 06:11:19;;;;;;;28.13;15.50;;;;;;;;;;5044900;28;20200;-68
2022/02/08 06:13:50;;;;;;;31.60;15.82;;;;;;;;;;5046182;28;20531;-68
2022/02/08 06:16:18;;;;;;;37.83;15.52;;;;;;;;;;5043062;28;20205;-69
2022/02/08 06:18:43;;;;;;;31.75;14.90;;;;;;;;;;5043710;28;20198;-68
2022/02/08 06:21:09;;;;;;;30.08;14.10;;;;;;;;;;5040341;28;20380;-68
2022/02/08 06:23:34;;;;;;;31.75;13.75;;;;;;;;;;5047215;28;20188;-67
2022/02/08 06:25:59;;;;;;;31.83;13.82;;;;;;;;;;5041323;28;20592;-67
2022/02/08 06:28:25;;;;;;;32.33;14.35;;;;;;;;;;5051868;28;20653;-68
2022/02/08 06:30:51;;;;;;;30.08;13.77;;;;;;;;;;5043362;28;20218;-68
2022/02/08 06:33:17;;;;;;;29.67;13.73;;;;;;;;;;5054923;28;20180;-68
2022/02/08 06:35:43;;;;;;;26.60;13.40;;;;;;;;;;5043705;28;20273;-67
2022/02/08 06:38:11;;;;;;;25.75;13.27;;;;;;;;;;5046505;28;20687;-67
2022/02/08 06:40:38;;;;;;;26.88;13.07;;;;;;;;;;5041368;28;20193;-66
2022/02/08 06:43:04;;;;;;;25.10;12.95;;;;;;;;;;5045233;28;20190;-67
2022/02/08 06:45:33;;;;;;;32.10;13.18;;;;;;;;;;5042950;28;20526;-69
2022/02/08 06:48:00;;;;;;;27.55;12.77;;;;;;;;;;5039623;28;20184;-68
2022/02/08 06:50:26;;;;;;;26.90;12.65;;;;;;;;;;5051206;28;20181;-68
2022/02/08 06:52:51;;;;;;;27.20;11.38;;;;;;;;;;5043499;28;20279;-68
2022/02/08 06:55:18;;;;;;;24.33;10.90;;;;;;;;;;5042646;28;20316;-68
2022/02/08 07:00:22;;;;;;;28.37;10.97;;;;;;;;;;5043827;28;20181;-68
2022/02/08 07:02:49;;;;;;;30.75;11.65;;;;;;;;;;5042518;28;20232;-68
2022/02/08 07:05:14;;;;;;;25.83;10.68;;;;;;;;;;5041104;28;20736;-67
2022/02/08 07:07:40;;;;;;;24.53;10.43;;;;;;;;;;5046024;28;20181;-67
2022/02/08 07:10:05;;;;;;;26.80;10.27;;;;;;;;;;5045353;28;20247;-67
2022/02/08 07:12:31;;;;;;;29.30;10.30;;;;;;;;;;5043143;28;20909;-68
2022/02/08 07:14:57;;;;;;;29.47;9.40;;;;;;;;;;5052520;28;20264;-67
2022/02/08 07:17:22;;;;;;;27.43;9.77;;;;;;;;;;5041039;28;20631;-67
2022/02/08 07:19:47;;;;;;;21.27;9.30;;;;;;;;;;5049495;28;20185;-68
2022/02/08 07:22:13;;;;;;;23.75;9.30;;;;;;;;;;5040942;28;20243;-69
2022/02/08 07:24:38;;;;;;;30.10;9.47;;;;;;;;;;5045514;28;20196;-68
2022/02/08 07:27:04;;;;;;;20.42;8.75;;;;;;;;;;5045584;28;20239;-68
2022/02/08 07:29:32;;;;;;;26.15;8.68;;;;;;;;;;5046784;28;20203;-68
2022/02/08 07:32:00;;;;;;;24.48;9.45;;;;;;;;;;5041716;28;20216;-68
2022/02/08 07:34:40;;;;;;;28.08;8.18;;;;;;;;;;5038527;28;20268;-68
2022/02/08 07:37:21;;;;;;;15.77;7.80;;;;;;;;;;5038066;28;20248;-67
2022/02/08 07:39:51;;;;;;;20.50;8.43;;;;;;;;;;5045272;28;20197;-67
2022/02/08 07:42:17;;;;;;;18.93;6.80;;;;;;;;;;5046697;28;20185;-67
2022/02/08 07:44:43;;;;;;;19.83;7.68;;;;;;;;;;5044889;28;20578;-69
2022/02/08 07:47:08;;;;;;;17.40;6.05;;;;;;;;;;5035471;28;20204;-67
2022/02/08 07:49:37;;;;;;;15.80;6.57;;;;;;;;;;5040337;28;20192;-69
2022/02/08 07:52:03;;;;;;;13.25;6.07;;;;;;;;;;5049373;28;20185;-68
2022/02/08 07:54:28;;;;;;;16.02;5.68;;;;;;;;;;5040042;28;20662;-67
2022/02/08 07:56:54;;;;;;;21.05;5.93;;;;;;;;;;5044500;28;20300;-67
2022/02/08 07:59:19;;;;;;;13.57;5.10;;;;;;;;;;5045902;28;20193;-67
2022/02/08 08:01:45;;;;;;;21.90;5.60;;;;;;;;;;5048962;28;20249;-68
2022/02/08 08:04:10;;;;;;;20.45;5.28;;;;;;;;;;5043249;28;20272;-68
2022/02/08 08:06:36;;;;;;;16.48;4.85;;;;;;;;;;5048800;28;20185;-67
2022/02/08 08:09:02;;;;;;;15.35;4.03;;;;;;;;;;5047264;28;20421;-68
2022/02/08 08:11:35;;;;;;;14.18;4.65;;;;;;;;;;5055129;28;20569;-68
2022/02/08 08:14:02;;;;;;;12.27;4.10;;;;;;;;;;5046213;28;20640;-68
2022/02/08 08:19:01;;;;;;;14.05;3.80;;;;;;;;;;5046031;28;20193;-68
2022/02/08 08:21:27;;;;;;;16.27;4.15;;;;;;;;;;5044604;28;20190;-68
2022/02/08 08:23:53;;;;;;;19.30;3.47;;;;;;;;;;5047636;28;20220;-68
2022/02/08 08:26:20;;;;;;;13.68;3.50;;;;;;;;;;5050009;28;20668;-68
2022/02/08 08:28:45;;;;;;;13.18;3.88;;;;;;;;;;5053672;28;20195;-67
2022/02/08 08:31:11;;;;;;;9.55;3.10;;;;;;;;;;5055765;28;20197;-68
2022/02/08 08:33:37;;;;;;;12.57;3.20;;;;;;;;;;5047833;28;20200;-67
2022/02/08 08:36:03;;;;;;;12.73;3.42;;;;;;;;;;5046961;28;20258;-67
2022/02/08 08:38:31;;;;;;;18.35;3.00;;;;;;;;;;5045548;28;20268;-68
2022/02/08 08:41:08;;;;;;;19.42;3.63;;;;;;;;;;5046470;28;20567;-67
2022/02/08 08:43:53;;;;;;;12.52;3.10;;;;;;;;;;5048784;28;20760;-68
2022/02/08 08:49:12;;;;;;;13.73;3.00;;;;;;;;;;5045040;28;20224;-67
2022/02/08 08:54:07;;;;;;;9.38;2.40;;;;;;;;;;5048297;28;20216;-68
2022/02/08 08:56:44;;;;;;;8.40;2.22;;;;;;;;;;5047057;28;20190;-67
2022/02/08 08:59:11;;;;;;;12.38;2.40;;;;;;;;;;5044423;28;20919;-66
2022/02/08 09:01:37;;;;;;;10.68;2.58;;;;;;;;;;5052827;28;20185;-67
2022/02/08 09:04:03;;;;;;;9.32;2.20;;;;;;;;;;5046023;28;20821;-68
2022/02/08 09:06:29;;;;;;;11.68;2.45;;;;;;;;;;5060156;28;20180;-68
2022/02/08 09:08:55;;;;;;;12.35;2.55;;;;;;;;;;5044577;28;20238;-68
2022/02/08 09:14:10;;;;;;;13.93;2.22;;;;;;;;;;5052052;28;20193;-68
2022/02/08 09:22:05;;;;;;;18.10;2.42;;;;;;;;;;5050587;28;20197;-68
2022/02/08 09:24:52;;;;;;;12.57;1.75;;;;;;;;;;5048021;28;20199;-67
2022/02/08 09:30:12;;;;;;;13.23;2.45;;;;;;;;;;5056015;28;20560;-68
2022/02/08 09:32:44;;;;;;;8.65;2.00;;;;;;;;;;5046338;28;20700;-68
2022/02/08 09:35:11;;;;;;;13.48;2.63;;;;;;;;;;5042609;28;20235;-69
2022/02/08 09:37:37;;;;;;;12.63;2.17;;;;;;;;;;5048012;28;20212;-69
2022/02/08 09:40:05;;;;;;;9.45;1.85;;;;;;;;;;5042383;28;20190;-68
2022/02/08 09:42:30;;;;;;;6.85;1.60;;;;;;;;;;5046973;28;20193;-68
2022/02/08 09:44:56;;;;;;;7.18;2.03;;;;;;;;;;5043752;28;20846;-68
2022/02/08 09:47:32;;;;;;;10.98;2.22;;;;;;;;;;5047201;28;20169;-68
2022/02/08 09:50:06;;;;;;;9.02;2.33;;;;;;;;;;5043712;28;20192;-67
2022/02/08 09:52:32;;;;;;;9.48;1.70;;;;;;;;;;5048528;28;20197;-68
2022/02/08 09:54:57;;;;;;;9.27;1.63;;;;;;;;;;5039834;28;20244;-68
2022/02/08 09:57:22;;;;;;;8.55;1.88;;;;;;;;;;5044069;28;20656;-68
2022/02/08 09:59:48;;;;;;;10.30;1.40;;;;;;;;;;5044085;28;20193;-67
2022/02/08 10:02:18;;;;;;;10.13;1.85;;;;;;;;;;5038864;28;20232;-67
2022/02/08 10:04:43;;;;;;;12.10;1.90;;;;;;;;;;5040203;28;20559;-67
2022/02/08 10:07:13;;;;;;;11.80;2.45;;;;;;;;;;5051303;28;20177;-67
2022/02/08 10:09:39;;;;;;;9.23;1.30;;;;;;;;;;5051844;28;20195;-68
2022/02/08 10:12:05;;;;;;;10.05;1.77;;;;;;;;;;5054977;28;20189;-68
2022/02/08 10:22:35;;;;;;;7.90;1.33;;;;;;;;;;5044795;28;20196;-68
2022/02/08 10:25:04;;;;;;;11.27;1.90;;;;;;;;;;5043541;28;20271;-68
2022/02/08 10:27:59;;;;;;;7.57;1.52;;;;;;;;;;5044803;28;20185;-68
2022/02/08 10:30:47;;;;;;;11.27;1.60;;;;;;;;;;5050608;28;20217;-68
2022/02/08 10:38:41;;;;;;;10.88;1.33;;;;;;;;;;5039621;28;20251;-68
2022/02/08 10:41:14;;;;;;;10.52;1.55;;;;;;;;;;5041980;28;20200;-68
2022/02/08 10:43:42;;;;;;;12.43;1.60;;;;;;;;;;5047648;28;20193;-68
2022/02/08 10:46:21;;;;;;;9.20;1.58;;;;;;;;;;5042885;28;20182;-67
2022/02/08 10:48:46;;;;;;;16.95;1.60;;;;;;;;;;5046785;28;20200;-68
2022/02/08 10:51:14;;;;;;;7.18;1.42;;;;;;;;;;5044378;28;20190;-68
2022/02/08 10:53:52;;;;;;;4.32;1.77;;;;;;;;;;5059043;28;20547;-67
2022/02/08 10:56:20;;;;;;;11.15;2.10;;;;;;;;;;5042602;28;20177;-67
2022/02/08 10:58:54;;;;;;;9.40;1.75;;;;;;;;;;5046052;28;20235;-67
2022/02/08 11:01:24;;;;;;;8.48;1.30;;;;;;;;;;5045346;28;20675;-67
2022/02/08 11:03:58;;;;;;;8.05;1.55;;;;;;;;;;5044861;28;20201;-68
2022/02/08 11:06:39;;;;;;;7.90;1.33;;;;;;;;;;5045317;28;20169;-68
2022/02/08 11:12:18;;;;;;;5.53;1.35;;;;;;;;;;5042474;28;20585;-67
2022/02/08 11:20:21;;;;;;;7.28;1.40;;;;;;;;;;5043405;28;20193;-67
2022/02/08 11:23:05;;;;;;;6.50;1.40;;;;;;;;;;5042698;28;20200;-67
2022/02/08 11:25:39;;;;;;;11.23;1.40;;;;;;;;;;5038565;28;20272;-67
2022/02/08 11:28:23;;;;;;;7.85;1.52;;;;;;;;;;5043476;28;20217;-67
2022/02/08 11:31:07;;;;;;;10.15;1.42;;;;;;;;;;5041861;28;20260;-68
2022/02/08 11:45:35;;;;;;;7.97;1.30;;;;;;;;;;5046151;28;20633;-67
2022/02/08 11:59:18;;;;;;;8.10;1.48;;;;;;;;;;5038205;28;20537;-67
2022/02/08 12:02:24;;;;;;;5.50;1.15;;;;;;;;;;5044149;28;20228;-67
2022/02/08 12:04:44;;;;;;;12.05;1.83;;;;;;;;;;5040153;28;20223;-68
2022/02/08 12:07:16;;;;;;;6.22;1.20;;;;;;;;;;5046020;28;20188;-68
2022/02/08 12:12:38;;;;;;;13.77;1.75;;;;;;;;;;5058370;28;20185;-68
2022/02/08 12:34:46;;;;;;;6.45;1.42;;;;;;;;;;5046239;28;20191;-68
2022/02/08 12:56:42;;;;;;;8.38;1.00;;;;;;;;;;5043730;28;20186;-68
2022/02/08 12:59:35;;;;;;;10.80;1.58;;;;;;;;;;5045149;28;20794;-69
2022/02/08 13:05:18;;;;;;;8.48;1.48;;;;;;;;;;5042257;28;20201;-68
2022/02/08 14:01:32;;;;;;;6.78;1.52;;;;;;;;;;5039359;28;20588;-68
2022/02/08 14:05:51;;;;;;;4.60;1.15;;;;;;;;;;5038087;28;20208;-68
2022/02/08 14:21:35;;;;;;;6.40;1.15;;;;;;;;;;5056690;28;20690;-68
2022/02/08 14:32:00;;;;;;;8.77;1.38;;;;;;;;;;5054859;28;20246;-68
2022/02/08 14:35:03;;;;;;;7.95;1.40;;;;;;;;;;5053470;28;20632;-68
2022/02/08 15:09:52;;;;;;;7.00;1.70;;;;;;;;;;5042038;28;20198;-68
2022/02/08 15:12:20;;;;;;;7.25;1.77;;;;;;;;;;5046591;28;20269;-68
2022/02/08 15:14:50;;;;;;;7.45;1.02;;;;;;;;;;5043617;28;20281;-68
2022/02/08 15:17:15;;;;;;;6.35;1.10;;;;;;;;;;5050285;28;20594;-68
2022/02/08 15:19:43;;;;;;;10.02;1.20;;;;;;;;;;5043334;28;20440;-68
2022/02/08 15:22:10;;;;;;;6.05;1.27;;;;;;;;;;5043561;28;20189;-67
2022/02/08 15:24:39;;;;;;;5.75;1.42;;;;;;;;;;5042672;28;20208;-67
2022/02/08 15:27:07;;;;;;;5.05;1.00;;;;;;;;;;5049240;28;20518;-67
2022/02/08 15:29:33;;;;;;;8.60;1.10;;;;;;;;;;5042888;28;20268;-67
2022/02/08 15:32:01;;;;;;;7.93;1.40;;;;;;;;;;5044116;28;20224;-67
2022/02/08 15:34:26;;;;;;;4.55;0.98;;;;;;;;;;5047955;28;20180;-68
2022/02/08 15:36:52;;;;;;;6.13;1.30;;;;;;;;;;5042891;28;20738;-68
2022/02/08 15:39:17;;;;;;;8.77;1.33;;;;;;;;;;5055541;28;20232;-68
2022/02/08 15:41:43;;;;;;;6.00;1.33;;;;;;;;;;5046939;28;20208;-68
2022/02/08 15:44:17;;;;;;;7.25;1.35;;;;;;;;;;5043671;28;20185;-68
2022/02/08 15:46:42;;;;;;;8.35;1.00;;;;;;;;;;5042577;28;20189;-68
2022/02/08 15:49:08;;;;;;;4.65;1.25;;;;;;;;;;5046519;28;20182;-68
2022/02/08 16:09:58;;;;;;;4.00;1.40;;;;;;;;;;5043253;28;20202;-68
2022/02/08 16:12:38;;;;;;;5.90;1.30;;;;;;;;;;5044458;28;20185;-68
2022/02/08 16:15:24;;;;;;;5.43;1.15;;;;;;;;;;5039420;28;20249;-68
2022/02/08 16:18:02;;;;;;;4.45;1.45;;;;;;;;;;5049272;28;20217;-68
2022/02/08 16:31:08;;;;;;;8.23;1.23;;;;;;;;;;5046160;28;20214;-68
2022/02/08 16:45:59;;;;;;;4.55;1.13;;;;;;;;;;5047964;28;20266;-68
2022/02/08 16:48:47;;;;;;;11.77;1.48;;;;;;;;;;5043342;28;20298;-68
2022/02/08 17:00:23;;;;;;;8.48;1.70;;;;;;;;;;5043501;28;20212;-68
2022/02/08 17:02:55;;;;;;;8.93;1.80;;;;;;;;;;5044830;28;20221;-68
2022/02/08 17:05:20;;;;;;;6.10;1.42;;;;;;;;;;5049036;28;20678;-69
2022/02/08 17:07:46;;;;;;;7.78;1.85;;;;;;;;;;5053702;28;20181;-68
2022/02/08 17:10:27;;;;;;;7.88;1.60;;;;;;;;;;5045011;28;20189;-68
2022/02/08 17:13:01;;;;;;;9.27;1.88;;;;;;;;;;5054670;28;20636;-68
2022/02/08 17:48:00;;;;;;;7.85;1.75;;;;;;;;;;5042667;28;20247;-69
2022/02/08 17:50:25;;;;;;;7.63;1.90;;;;;;;;;;5051983;28;20426;-68
2022/02/08 17:52:51;;;;;;;7.22;1.65;;;;;;;;;;5044952;28;20186;-69
2022/02/08 17:55:17;;;;;;;5.00;1.70;;;;;;;;;;5053995;28;20177;-69
2022/02/08 17:57:43;;;;;;;9.88;1.58;;;;;;;;;;5046986;28;20299;-68
2022/02/08 18:00:11;;;;;;;7.78;1.70;;;;;;;;;;5047486;28;20272;-69
2022/02/08 18:02:37;;;;;;;4.82;1.70;;;;;;;;;;5044620;28;20225;-69
2022/02/08 18:05:02;;;;;;;8.30;2.03;;;;;;;;;;5051998;28;20780;-68
2022/02/08 18:07:29;;;;;;;7.82;1.85;;;;;;;;;;5043416;28;20268;-69
2022/02/08 18:09:54;;;;;;;12.30;2.55;;;;;;;;;;5046319;28;20220;-69
2022/02/08 18:12:23;;;;;;;14.90;3.58;;;;;;;;;;5042371;28;20217;-69
2022/02/08 18:14:54;;;;;;;7.82;2.40;;;;;;;;;;5045731;28;20548;-68
2022/02/08 18:17:26;;;;;;;9.38;1.98;;;;;;;;;;5044520;28;20203;-69
2022/02/08 18:25:57;;;;;;;12.15;1.92;;;;;;;;;;5044176;28;20251;-69
2022/02/08 18:28:47;;;;;;;7.75;1.98;;;;;;;;;;5048189;28;20194;-68
2022/02/08 19:09:11;;;;;;;5.78;1.52;;;;;;;;;;5054005;28;20199;-67
2022/02/08 19:11:46;;;;;;;5.03;1.50;;;;;;;;;;5043780;28;20181;-69
2022/02/08 19:15:06;;;;;;;8.40;1.60;;;;;;;;;;5047632;28;20187;-68
2022/02/08 19:20:06;;;;;;;3.38;0.77;;;;;;;;;;5043574;28;20239;-68
2022/02/08 19:22:32;;;;;;;8.15;1.17;;;;;;;;;;5046729;28;20211;-68
2022/02/08 19:24:57;;;;;;;8.98;1.35;;;;;;;;;;5045069;28;20811;-68
2022/02/08 19:27:23;;;;;;;4.30;1.08;;;;;;;;;;5052297;28;20556;-68
2022/02/08 19:29:49;;;;;;;3.42;1.20;;;;;;;;;;5044769;28;20227;-68
2022/02/08 19:32:15;;;;;;;9.32;1.42;;;;;;;;;;5046863;28;20632;-68
2022/02/08 19:34:42;;;;;;;4.10;1.20;;;;;;;;;;5046867;28;20193;-68
2022/02/08 19:37:11;;;;;;;5.57;1.17;;;;;;;;;;5051499;28;20202;-68
2022/02/08 19:39:39;;;;;;;3.00;0.85;;;;;;;;;;5043548;28;20261;-68
2022/02/08 19:42:06;;;;;;;3.65;1.23;;;;;;;;;;5049319;28;20203;-69
2022/02/08 19:44:31;;;;;;;4.25;1.10;;;;;;;;;;5042636;28;20680;-69
2022/02/08 19:46:59;;;;;;;4.15;1.10;;;;;;;;;;5041600;28;20182;-68
2022/02/08 19:49:25;;;;;;;4.93;1.52;;;;;;;;;;5046495;28;20181;-67
2022/02/08 19:51:51;;;;;;;4.63;1.00;;;;;;;;;;5045465;28;20636;-68
2022/02/08 19:54:22;;;;;;;6.47;1.33;;;;;;;;;;5047506;28;20189;-68
2022/02/08 19:57:33;;;;;;;6.22;1.75;;;;;;;;;;5044822;28;20241;-68
2022/02/08 19:59:36;;;;;;;4.32;1.20;;;;;;;;;;5050203;28;20193;-68
2022/02/08 20:02:06;;;;;;;2.75;1.08;;;;;;;;;;5045620;28;20681;-67
2022/02/08 20:04:34;;;;;;;4.50;1.27;;;;;;;;;;5056667;28;20272;-68
2022/02/08 20:07:02;;;;;;;3.65;1.00;;;;;;;;;;5050063;28;20767;-68
2022/02/08 20:09:28;;;;;;;4.95;1.42;;;;;;;;;;5051670;28;20649;-68
2022/02/08 20:11:55;;;;;;;5.40;1.25;;;;;;;;;;5046493;28;20192;-68
2022/02/08 20:14:22;;;;;;;4.97;1.30;;;;;;;;;;5057067;28;20189;-69
2022/02/08 20:16:48;;;;;;;4.82;1.70;;;;;;;;;;5046987;28;20201;-69
2022/02/08 20:19:16;;;;;;;7.47;1.40;;;;;;;;;;5047405;28;20284;-69
2022/02/08 20:21:42;;;;;;;3.25;1.30;;;;;;;;;;5047425;28;20193;-69
2022/02/08 20:24:11;;;;;;;5.60;1.30;;;;;;;;;;5045957;28;20193;-69
2022/02/08 20:27:16;;;;;;;7.35;1.25;;;;;;;;;;5045667;28;20192;-69
2022/02/08 20:29:37;;;;;;;6.28;1.30;;;;;;;;;;5044288;28;20221;-69
2022/02/08 20:32:05;;;;;;;4.15;1.40;;;;;;;;;;5043152;28;20209;-69
2022/02/08 20:34:30;;;;;;;5.60;1.48;;;;;;;;;;5046946;28;20316;-68
2022/02/08 20:36:58;;;;;;;6.00;2.03;;;;;;;;;;5045204;28;20442;-68
2022/02/08 20:39:25;;;;;;;5.10;1.83;;;;;;;;;;5043850;28;20251;-68
2022/02/08 20:41:51;;;;;;;7.63;2.13;;;;;;;;;;5043490;28;20264;-68
2022/02/08 20:44:18;;;;;;;4.55;2.10;;;;;;;;;;5041061;28;20213;-68
2022/02/08 20:46:50;;;;;;;3.72;1.83;;;;;;;;;;5046662;28;20188;-68
2022/02/08 20:49:16;;;;;;;5.65;2.08;;;;;;;;;;5041312;28;20587;-69
2022/02/08 20:51:44;;;;;;;8.02;2.25;;;;;;;;;;5041848;28;20185;-69
2022/02/08 20:54:12;;;;;;;6.50;2.13;;;;;;;;;;5044666;28;20234;-68
2022/02/08 20:56:38;;;;;;;6.60;1.95;;;;;;;;;;5051820;28;20866;-69
2022/02/08 20:59:12;;;;;;;9.02;2.30;;;;;;;;;;5043454;28;20188;-69
2022/02/08 21:01:43;;;;;;;5.93;1.95;;;;;;;;;;5041294;28;20198;-68
2022/02/08 21:04:26;;;;;;;5.13;1.85;;;;;;;;;;5047027;28;20887;-69
2022/02/08 21:06:52;;;;;;;7.93;2.40;;;;;;;;;;5044401;28;20189;-69
2022/02/08 21:09:20;;;;;;;5.80;2.10;;;;;;;;;;5052650;28;20224;-69
2022/02/08 21:11:51;;;;;;;6.32;2.45;;;;;;;;;;5044931;28;20189;-68
2022/02/08 21:14:17;;;;;;;10.35;2.60;;;;;;;;;;5045295;28;20193;-68
2022/02/08 21:16:47;;;;;;;7.43;2.78;;;;;;;;;;5044267;28;20274;-67
2022/02/08 21:19:16;;;;;;;7.53;2.58;;;;;;;;;;5054497;28;20181;-68
2022/02/08 21:21:41;;;;;;;7.18;2.90;;;;;;;;;;5043128;28;20582;-67
2022/02/08 21:24:08;;;;;;;5.35;2.55;;;;;;;;;;5049331;28;20250;-68
2022/02/08 21:26:39;;;;;;;5.55;2.90;;;;;;;;;;5043265;28;20597;-68
2022/02/08 21:29:22;;;;;;;7.18;2.85;;;;;;;;;;5041319;28;20201;-68
2022/02/08 21:53:27;;;;;;;5.93;2.70;;;;;;;;;;5046043;28;20193;-68
2022/02/08 21:55:57;;;;;;;7.57;2.47;;;;;;;;;;5043706;28;20224;-68
2022/02/08 21:58:24;;;;;;;4.88;2.72;;;;;;;;;;5042702;28;20343;-68
2022/02/08 22:00:50;;;;;;;4.47;2.85;;;;;;;;;;5048514;28;20211;-69
2022/02/08 22:03:15;;;;;;;3.65;2.72;;;;;;;;;;5043330;28;20221;-68
2022/02/08 22:05:40;;;;;;;7.80;3.08;;;;;;;;;;5049518;28;20190;-68
2022/02/08 22:08:13;;;;;;;7.70;3.30;;;;;;;;;;5042660;28;20177;-68
2022/02/08 22:17:05;;;;;;;6.82;3.78;;;;;;;;;;5042437;28;20342;-68
2022/02/08 22:21:28;;;;;;;9.40;3.95;;;;;;;;;;5043580;28;20198;-68
2022/02/08 22:34:23;;;;;;;12.50;4.38;;;;;;;;;;5045665;28;20224;-68
2022/02/08 22:37:06;;;;;;;13.02;4.80;;;;;;;;;;5041937;28;20189;-68
2022/02/08 22:39:40;;;;;;;8.85;4.30;;;;;;;;;;5043285;28;20200;-69
2022/02/08 22:42:10;;;;;;;11.00;4.78;;;;;;;;;;5044406;28;20170;-68
2022/02/08 22:44:52;;;;;;;10.00;4.70;;;;;;;;;;5043094;28;20208;-68
2022/02/08 22:47:19;;;;;;;10.25;4.78;;;;;;;;;;5036382;28;20189;-67
2022/02/08 22:49:46;;;;;;;10.45;4.50;;;;;;;;;;5042134;28;20212;-68
2022/02/08 22:52:11;;;;;;;10.23;5.15;;;;;;;;;;5046155;28;20185;-68